createdAt,value
2023-04-18T00:00:12.366Z,50.19
2023-04-18T00:02:41.570Z,49.83
2023-04-18T00:05:09.012Z,49.68
2023-04-18T00:07:36.253Z,49.23
2023-04-18T00:10:05.109Z,49.77
2023-04-18T00:12:34.332Z,49.38
2023-04-18T00:15:02.099Z,48.84
2023-04-18T00:17:31.925Z,48.79
2023-04-18T00:20:02.021Z,48.63
2023-04-18T00:22:29.622Z,48.18
2023-04-18T00:24:57.027Z,48.17
2023-04-18T00:27:24.763Z,47.85
2023-04-18T00:29:52.217Z,47.19
2023-04-18T00:32:19.446Z,46.66
2023-04-18T00:34:46.835Z,44.01
2023-04-18T00:37:14.045Z,38.16
2023-04-18T00:39:42.159Z,34.18
2023-04-18T00:42:09.828Z,31.75
2023-04-18T00:44:36.852Z,30.14
2023-04-18T00:47:04.089Z,29.29
2023-04-18T00:49:31.646Z,28.24
2023-04-18T00:51:59.069Z,25.65
2023-04-18T00:54:26.068Z,23.36
2023-04-18T00:56:53.512Z,20.59
2023-04-18T00:59:21.303Z,19.00
2023-04-18T01:01:49.158Z,17.71
2023-04-18T01:04:16.794Z,16.40
2023-04-18T01:06:45.402Z,16.15
2023-04-18T01:09:13.936Z,16.01
2023-04-18T01:11:41.486Z,15.56
2023-04-18T01:14:09.670Z,15.39
2023-04-18T01:16:36.795Z,15.04
2023-04-18T01:19:04.375Z,14.85
2023-04-18T01:21:35.774Z,15.04
2023-04-18T01:24:14.350Z,14.40
2023-04-18T01:26:43.396Z,13.98
2023-04-18T01:29:10.788Z,14.19
2023-04-18T01:31:38.576Z,13.72
2023-04-18T01:34:07.467Z,14.42
2023-04-18T01:36:35.958Z,14.01
2023-04-18T01:39:03.347Z,14.10
2023-04-18T01:41:32.997Z,14.41
2023-04-18T01:44:00.877Z,14.61
2023-04-18T01:46:28.842Z,15.03
2023-04-18T01:48:57.102Z,15.54
2023-04-18T01:51:24.707Z,16.30
2023-04-18T01:53:53.737Z,16.19
2023-04-18T01:56:20.953Z,15.58
2023-04-18T01:58:48.281Z,15.48
2023-04-18T02:01:15.745Z,15.19
2023-04-18T02:03:43.663Z,14.87
2023-04-18T02:06:12.981Z,14.59
2023-04-18T02:08:40.646Z,14.46
2023-04-18T02:11:08.024Z,15.19
2023-04-18T02:13:35.309Z,15.78
2023-04-18T02:16:12.422Z,16.01
2023-04-18T02:18:42.731Z,15.28
2023-04-18T02:21:11.053Z,15.30
2023-04-18T02:23:38.118Z,15.38
2023-04-18T02:26:06.511Z,14.98
2023-04-18T02:28:38.977Z,15.46
2023-04-18T02:31:07.695Z,15.29
2023-04-18T02:33:35.031Z,15.65
2023-04-18T02:36:02.434Z,14.65
2023-04-18T02:38:29.696Z,14.60
2023-04-18T02:40:57.394Z,13.33
2023-04-18T02:43:24.406Z,12.94
2023-04-18T02:45:51.974Z,12.48
2023-04-18T02:48:20.366Z,13.92
2023-04-18T02:50:47.803Z,14.06
2023-04-18T02:53:16.785Z,13.64
2023-04-18T02:55:53.801Z,13.56
2023-04-18T02:58:26.061Z,14.34
2023-04-18T03:01:09.966Z,13.65
2023-04-18T03:03:51.306Z,14.44
2023-04-18T03:06:44.450Z,15.19
2023-04-18T03:09:11.991Z,15.16
2023-04-18T03:11:44.783Z,16.08
2023-04-18T03:14:13.244Z,16.26
2023-04-18T03:16:48.279Z,17.16
2023-04-18T03:19:20.166Z,17.24
2023-04-18T03:21:47.930Z,17.57
2023-04-18T03:24:15.388Z,18.06
2023-04-18T03:26:46.404Z,18.44
2023-04-18T03:29:13.763Z,17.92
2023-04-18T03:31:44.559Z,17.39
2023-04-18T03:34:12.387Z,17.87
2023-04-18T03:36:40.086Z,18.66
2023-04-18T03:39:07.213Z,18.36
2023-04-18T03:41:35.039Z,18.50
2023-04-18T03:44:03.209Z,18.29
2023-04-18T03:46:34.540Z,18.47
2023-04-18T03:49:03.141Z,18.50
2023-04-18T03:51:32.737Z,18.48
2023-04-18T03:54:00.042Z,18.70
2023-04-18T03:56:27.368Z,18.82
2023-04-18T03:58:55.954Z,19.12
2023-04-18T04:01:23.362Z,19.11
2023-04-18T04:03:52.809Z,19.55
2023-04-18T04:06:21.732Z,19.41
2023-04-18T04:08:48.907Z,20.05
2023-04-18T04:11:21.874Z,20.07
2023-04-18T04:13:49.338Z,19.37
2023-04-18T04:16:20.155Z,20.08
2023-04-18T04:18:49.756Z,19.98
2023-04-18T04:21:21.262Z,19.68
2023-04-18T04:23:51.797Z,19.87
2023-04-18T04:26:35.424Z,20.14
2023-04-18T04:29:11.620Z,19.82
2023-04-18T04:31:39.840Z,19.66
2023-04-18T04:34:08.544Z,19.66
2023-04-18T04:36:36.613Z,19.67
2023-04-18T04:39:06.256Z,19.98
2023-04-18T04:41:47.013Z,19.48
2023-04-18T04:44:17.656Z,19.59
2023-04-18T04:46:45.071Z,19.91
2023-04-18T04:49:19.292Z,20.19
2023-04-18T04:51:46.775Z,19.35
2023-04-18T04:54:14.063Z,19.18
2023-04-18T04:56:42.025Z,19.73
2023-04-18T04:59:09.373Z,20.10
2023-04-18T05:01:40.885Z,19.70
2023-04-18T05:04:08.431Z,19.93
2023-04-18T05:06:35.786Z,19.85
2023-04-18T05:09:03.266Z,20.25
2023-04-18T05:11:30.359Z,20.64
2023-04-18T05:13:57.805Z,20.80
2023-04-18T05:16:25.178Z,20.63
2023-04-18T05:18:52.742Z,19.75
2023-04-18T05:21:19.815Z,20.19
2023-04-18T05:23:47.223Z,20.44
2023-04-18T05:26:14.400Z,20.24
2023-04-18T05:28:41.850Z,20.44
2023-04-18T05:31:08.964Z,20.83
2023-04-18T05:33:36.411Z,20.95
2023-04-18T05:36:03.944Z,21.10
2023-04-18T05:38:31.268Z,20.72
2023-04-18T05:41:00.160Z,20.67
2023-04-18T05:43:27.230Z,20.21
2023-04-18T05:45:55.913Z,20.63
2023-04-18T05:48:25.305Z,20.84
2023-04-18T05:50:53.050Z,21.07
2023-04-18T05:53:20.639Z,20.58
2023-04-18T05:55:48.678Z,20.48
2023-04-18T05:58:15.815Z,20.53
2023-04-18T06:00:43.109Z,20.12
2023-04-18T06:03:11.305Z,19.51
2023-04-18T06:05:41.044Z,20.11
2023-04-18T06:08:08.595Z,20.50
2023-04-18T06:10:37.659Z,21.30
2023-04-18T06:13:06.266Z,21.64
2023-04-18T06:15:35.389Z,20.82
2023-04-18T06:18:02.441Z,21.31
2023-04-18T06:20:30.118Z,20.60
2023-04-18T06:22:57.201Z,21.28
2023-04-18T06:25:25.113Z,21.20
2023-04-18T06:27:52.329Z,21.14
2023-04-18T06:30:21.567Z,21.25
2023-04-18T06:32:49.140Z,21.25
2023-04-18T06:35:16.898Z,21.10
2023-04-18T06:37:44.717Z,21.76
2023-04-18T06:40:12.346Z,21.56
2023-04-18T06:42:40.027Z,21.50
2023-04-18T06:45:07.962Z,21.29
2023-04-18T06:47:35.736Z,21.37
2023-04-18T06:50:02.951Z,21.34
2023-04-18T06:52:30.790Z,21.28
2023-04-18T06:54:58.164Z,21.30
2023-04-18T06:57:25.852Z,20.90
2023-04-18T06:59:52.978Z,20.63
2023-04-18T07:02:20.543Z,21.28
2023-04-18T07:04:47.989Z,20.69
2023-04-18T07:07:15.478Z,20.12
2023-04-18T07:09:42.959Z,20.07
2023-04-18T07:12:10.000Z,20.46
2023-04-18T07:14:37.351Z,20.98
2023-04-18T07:17:04.973Z,21.37
2023-04-18T07:19:32.716Z,21.53
2023-04-18T07:22:00.439Z,20.55
2023-04-18T07:24:27.599Z,20.77
2023-04-18T07:26:55.215Z,21.54
2023-04-18T07:29:22.839Z,21.40
2023-04-18T07:31:50.433Z,21.38
2023-04-18T07:34:18.356Z,21.34
2023-04-18T07:36:45.885Z,21.38
2023-04-18T07:39:13.521Z,21.20
2023-04-18T07:41:40.860Z,21.03
2023-04-18T07:44:08.282Z,21.20
2023-04-18T07:46:35.669Z,20.51
2023-04-18T07:49:03.289Z,19.91
2023-04-18T07:51:34.962Z,19.78
2023-04-18T07:54:02.078Z,19.97
2023-04-18T07:56:30.011Z,20.66
2023-04-18T07:58:57.022Z,20.71
2023-04-18T08:01:24.603Z,20.41
2023-04-18T08:03:53.279Z,20.33
2023-04-18T08:06:21.434Z,20.77
2023-04-18T08:08:48.887Z,21.09
2023-04-18T08:11:16.433Z,20.81
2023-04-18T08:13:43.786Z,20.56
2023-04-18T08:16:11.184Z,20.81
2023-04-18T08:18:38.540Z,21.00
2023-04-18T08:21:06.452Z,21.21
2023-04-18T08:23:33.469Z,21.59
2023-04-18T08:26:00.990Z,22.37
2023-04-18T08:28:28.392Z,22.43
2023-04-18T08:30:56.270Z,21.45
2023-04-18T08:33:24.488Z,20.98
2023-04-18T08:35:51.774Z,20.54
2023-04-18T08:38:18.982Z,21.11
2023-04-18T08:40:46.758Z,21.66
2023-04-18T08:43:15.023Z,21.63
2023-04-18T08:45:43.032Z,21.24
2023-04-18T08:48:14.017Z,21.17
2023-04-18T08:50:41.946Z,21.29
2023-04-18T08:53:09.260Z,21.05
2023-04-18T08:55:36.842Z,21.91
2023-04-18T08:58:06.865Z,21.68
2023-04-18T09:00:34.874Z,21.96
2023-04-18T09:03:03.172Z,22.29
2023-04-18T09:05:31.117Z,23.24
2023-04-18T09:07:58.893Z,23.17
2023-04-18T09:10:32.667Z,22.76
2023-04-18T09:13:02.787Z,22.45
2023-04-18T09:15:30.420Z,22.21
2023-04-18T09:17:59.061Z,22.19
2023-04-18T09:20:34.236Z,22.51
2023-04-18T09:23:05.915Z,22.12
2023-04-18T09:25:52.340Z,21.51
2023-04-18T09:28:29.782Z,21.39
2023-04-18T09:30:58.489Z,21.48
2023-04-18T09:33:33.679Z,21.49
2023-04-18T09:36:20.933Z,20.94
2023-04-18T09:38:48.519Z,21.74
2023-04-18T09:41:18.496Z,21.61
2023-04-18T09:43:48.272Z,21.66
2023-04-18T09:46:17.455Z,21.71
2023-04-18T09:48:45.538Z,22.49
2023-04-18T09:51:16.060Z,21.98
2023-04-18T09:53:51.038Z,21.66
2023-04-18T09:56:25.970Z,21.62
2023-04-18T09:58:57.059Z,21.76
2023-04-18T10:01:27.577Z,21.58
2023-04-18T10:03:55.035Z,22.05
2023-04-18T10:06:22.515Z,22.05
2023-04-18T10:08:49.614Z,22.47
2023-04-18T10:11:18.622Z,22.10
2023-04-18T10:13:48.209Z,21.33
2023-04-18T10:16:16.634Z,20.85
2023-04-18T10:18:44.224Z,19.54
2023-04-18T10:21:11.879Z,19.07
2023-04-18T10:23:39.317Z,19.31
2023-04-18T10:26:10.574Z,19.83
2023-04-18T10:28:56.803Z,20.86
2023-04-18T10:31:28.095Z,21.56
2023-04-18T10:36:29.036Z,22.88
2023-04-18T10:39:04.719Z,23.29
2023-04-18T10:41:33.290Z,24.02
2023-04-18T10:44:08.486Z,23.93
2023-04-18T10:46:40.965Z,24.76
2023-04-18T10:49:26.226Z,24.83
2023-04-18T10:51:58.553Z,24.82
2023-04-18T10:54:30.808Z,25.38
2023-04-18T10:56:59.343Z,25.41
2023-04-18T10:59:26.951Z,25.78
2023-04-18T11:02:03.289Z,26.04
2023-04-18T11:04:31.161Z,26.07
2023-04-18T11:06:58.548Z,26.20
2023-04-18T11:09:26.126Z,26.63
2023-04-18T11:12:06.958Z,26.73
2023-04-18T11:14:44.019Z,26.99
2023-04-18T11:17:18.504Z,27.93
2023-04-18T11:19:45.964Z,28.24
2023-04-18T11:22:13.716Z,27.99
2023-04-18T11:24:40.737Z,28.34
2023-04-18T11:27:11.789Z,28.50
2023-04-18T11:29:39.160Z,28.01
2023-04-18T11:32:07.664Z,28.41
2023-04-18T11:34:35.592Z,28.54
2023-04-18T11:37:07.202Z,28.60
2023-04-18T11:39:36.112Z,28.37
2023-04-18T11:42:03.204Z,28.82
2023-04-18T11:44:30.954Z,29.40
2023-04-18T11:46:58.198Z,29.62
2023-04-18T11:49:29.885Z,29.70
2023-04-18T11:51:57.121Z,30.21
2023-04-18T11:54:54.091Z,30.65
2023-04-18T11:57:25.987Z,30.82
2023-04-18T11:59:55.462Z,31.56
2023-04-18T12:02:23.720Z,31.83
2023-04-18T12:04:52.967Z,32.40
2023-04-18T12:07:30.859Z,32.06
2023-04-18T12:09:58.677Z,32.58
2023-04-18T12:12:26.206Z,32.89
2023-04-18T12:15:13.734Z,33.70
2023-04-18T12:17:44.010Z,33.30
2023-04-18T12:20:13.159Z,33.28
2023-04-18T12:22:41.922Z,33.16
2023-04-18T12:25:25.907Z,33.55
2023-04-18T12:28:17.482Z,33.39
2023-04-18T12:30:45.121Z,33.58
2023-04-18T12:33:12.252Z,33.48
2023-04-18T12:35:39.398Z,33.93
2023-04-18T12:38:07.025Z,33.99
2023-04-18T12:40:34.155Z,34.20
2023-04-18T12:43:03.542Z,34.24
2023-04-18T12:45:31.276Z,34.20
2023-04-18T12:47:58.577Z,34.53
2023-04-18T12:50:26.665Z,34.59
2023-04-18T12:52:54.511Z,34.14
2023-04-18T12:55:22.911Z,34.73
2023-04-18T12:57:57.596Z,34.80
2023-04-18T13:00:29.522Z,35.27
2023-04-18T13:02:57.306Z,35.44
2023-04-18T13:05:27.330Z,35.52
2023-04-18T13:08:08.651Z,35.44
2023-04-18T13:10:40.613Z,35.38
2023-04-18T13:13:07.636Z,35.64
2023-04-18T13:15:34.856Z,35.84
2023-04-18T13:18:04.758Z,36.03
2023-04-18T13:20:33.155Z,36.10
2023-04-18T13:23:01.779Z,36.27
2023-04-18T13:25:28.921Z,35.69
2023-04-18T13:27:58.433Z,35.92
2023-04-18T13:30:25.999Z,35.72
2023-04-18T13:32:53.634Z,36.27
2023-04-18T13:35:20.858Z,36.16
2023-04-18T13:37:48.212Z,36.27
2023-04-18T13:40:15.881Z,36.13
2023-04-18T13:42:43.230Z,36.16
2023-04-18T13:45:12.594Z,36.30
2023-04-18T13:47:39.806Z,36.24
2023-04-18T13:50:07.865Z,36.45
2023-04-18T13:52:35.976Z,36.43
2023-04-18T13:55:03.992Z,36.54
2023-04-18T13:57:34.381Z,36.66
2023-04-18T14:00:01.887Z,36.54
2023-04-18T14:02:40.437Z,37.16
2023-04-18T14:05:08.615Z,37.30
2023-04-18T14:07:37.957Z,37.11
2023-04-18T14:10:06.032Z,37.46
2023-04-18T14:12:34.078Z,37.33
2023-04-18T14:15:01.345Z,37.91
2023-04-18T14:17:28.796Z,38.19
2023-04-18T14:19:55.945Z,38.26
2023-04-18T14:22:23.411Z,38.46
2023-04-18T14:24:52.177Z,38.54
2023-04-18T14:27:19.627Z,39.15
2023-04-18T14:29:48.580Z,38.87
2023-04-18T14:32:16.265Z,39.00
2023-04-18T14:34:43.796Z,39.52
2023-04-18T14:37:10.854Z,39.17
2023-04-18T14:39:38.430Z,39.62
2023-04-18T14:42:06.043Z,39.95
2023-04-18T14:44:33.435Z,39.97
2023-04-18T14:47:01.417Z,40.49
2023-04-18T14:49:28.628Z,40.17
2023-04-18T14:51:55.824Z,40.53
2023-04-18T14:54:23.111Z,40.70
2023-04-18T14:56:50.690Z,40.57
2023-04-18T14:59:18.020Z,40.90
2023-04-18T15:01:45.685Z,40.96
2023-04-18T15:04:13.328Z,40.69
2023-04-18T15:06:41.292Z,41.08
2023-04-18T15:09:08.828Z,40.89
2023-04-18T15:11:36.126Z,41.29
2023-04-18T15:14:03.270Z,41.03
2023-04-18T15:16:31.862Z,41.27
2023-04-18T15:19:00.138Z,41.15
2023-04-18T15:21:27.416Z,41.38
2023-04-18T15:23:54.473Z,41.24
2023-04-18T15:26:22.134Z,40.96
2023-04-18T15:28:49.195Z,41.43
2023-04-18T15:31:16.547Z,41.85
2023-04-18T15:33:43.606Z,41.82
2023-04-18T15:36:10.793Z,41.56
2023-04-18T15:38:37.974Z,42.00
2023-04-18T15:41:06.638Z,42.25
2023-04-18T15:43:33.831Z,41.80
2023-04-18T15:46:00.906Z,42.22
2023-04-18T15:48:30.374Z,41.99
2023-04-18T15:50:58.352Z,42.11
2023-04-18T15:53:25.840Z,42.34
2023-04-18T15:55:53.631Z,41.96
2023-04-18T15:58:27.752Z,42.03
2023-04-18T16:00:55.686Z,42.13
2023-04-18T16:03:24.719Z,42.19
2023-04-18T16:05:52.219Z,42.31
2023-04-18T16:08:19.854Z,42.22
2023-04-18T16:10:46.896Z,42.01
2023-04-18T16:13:14.517Z,42.02
2023-04-18T16:15:42.444Z,42.53
2023-04-18T16:18:10.057Z,42.39
2023-04-18T16:20:37.259Z,42.91
2023-04-18T16:23:04.360Z,43.03
2023-04-18T16:25:31.732Z,43.39
2023-04-18T16:27:58.848Z,43.26
2023-04-18T16:30:26.192Z,43.45
2023-04-18T16:32:54.039Z,43.38
2023-04-18T16:35:21.658Z,44.25
2023-04-18T16:37:48.824Z,44.32
2023-04-18T16:40:16.017Z,44.22
2023-04-18T16:42:43.424Z,44.58
2023-04-18T16:45:11.146Z,44.92
2023-04-18T16:47:38.390Z,44.98
2023-04-18T16:50:07.231Z,45.18
2023-04-18T16:52:34.454Z,45.13
2023-04-18T16:55:01.875Z,45.88
2023-04-18T16:57:29.626Z,46.06
2023-04-18T16:59:57.995Z,45.90
2023-04-18T17:02:25.739Z,45.71
2023-04-18T17:04:52.917Z,45.97
2023-04-18T17:07:20.012Z,45.96
2023-04-18T17:09:46.969Z,46.11
2023-04-18T17:12:14.503Z,46.41
2023-04-18T17:14:41.608Z,46.27
2023-04-18T17:17:09.338Z,46.88
2023-04-18T17:19:36.456Z,46.57
2023-04-18T17:22:03.799Z,46.73
2023-04-18T17:24:30.859Z,46.80
2023-04-18T17:26:58.256Z,46.55
2023-04-18T17:29:26.591Z,46.85
2023-04-18T17:31:54.191Z,46.49
2023-04-18T17:34:21.693Z,46.31
2023-04-18T17:36:49.010Z,46.45
2023-04-18T17:39:17.164Z,46.79
2023-04-18T17:41:44.749Z,46.18
2023-04-18T17:44:12.398Z,46.31
2023-04-18T17:46:39.326Z,46.55
2023-04-18T17:49:07.007Z,46.82
2023-04-18T17:51:34.122Z,47.08
2023-04-18T17:54:01.426Z,47.08
2023-04-18T17:56:30.432Z,47.85
2023-04-18T17:58:57.561Z,47.70
2023-04-18T18:01:26.356Z,47.80
2023-04-18T18:03:53.989Z,48.23
2023-04-18T18:06:21.351Z,48.12
2023-04-18T18:08:48.536Z,47.82
2023-04-18T18:11:16.137Z,48.13
2023-04-18T18:13:43.488Z,47.72
2023-04-18T18:16:11.219Z,47.42
2023-04-18T18:18:39.204Z,47.58
2023-04-18T18:21:06.418Z,47.64
2023-04-18T18:23:33.429Z,48.16
2023-04-18T18:26:00.487Z,47.62
2023-04-18T18:28:28.485Z,47.58
2023-04-18T18:30:56.120Z,48.23
2023-04-18T18:33:23.601Z,49.61
2023-04-18T18:35:50.967Z,51.25
2023-04-18T18:38:18.148Z,55.37
2023-04-18T18:40:45.958Z,57.22
2023-04-18T18:43:13.300Z,60.37
2023-04-18T18:45:40.467Z,60.27
2023-04-18T18:48:07.988Z,60.15
2023-04-18T18:50:35.628Z,60.93
2023-04-18T18:53:02.872Z,61.97
2023-04-18T18:55:29.919Z,61.54
2023-04-18T18:57:57.368Z,61.42
2023-04-18T19:00:25.017Z,60.55
2023-04-18T19:02:52.897Z,60.13
2023-04-18T19:05:21.125Z,60.02
2023-04-18T19:07:48.888Z,59.99
2023-04-18T19:10:16.315Z,59.68
2023-04-18T19:12:44.036Z,59.55
2023-04-18T19:15:12.149Z,60.22
2023-04-18T19:17:39.287Z,59.80
2023-04-18T19:20:07.391Z,59.43
2023-04-18T19:22:34.911Z,59.92
2023-04-18T19:25:03.319Z,59.54
2023-04-18T19:27:30.552Z,59.42
2023-04-18T19:29:57.966Z,59.45
2023-04-18T19:32:25.631Z,58.92
2023-04-18T19:34:52.908Z,59.23
2023-04-18T19:37:20.014Z,58.99
2023-04-18T19:39:47.467Z,58.96
2023-04-18T19:42:14.950Z,59.57
2023-04-18T19:44:43.023Z,59.29
2023-04-18T19:47:10.355Z,59.04
2023-04-18T19:49:37.951Z,59.37
2023-04-18T19:52:05.903Z,58.09
2023-04-18T19:54:33.296Z,57.49
2023-04-18T19:57:01.097Z,56.41
2023-04-18T19:59:28.084Z,56.91
2023-04-18T20:01:55.785Z,56.95
2023-04-18T20:04:25.311Z,57.62
2023-04-18T20:06:54.080Z,57.21
2023-04-18T20:09:21.327Z,57.15
2023-04-18T20:11:48.709Z,55.63
2023-04-18T20:14:16.390Z,55.90
2023-04-18T20:16:45.550Z,55.88
2023-04-18T20:19:13.433Z,55.97
2023-04-18T20:21:41.324Z,56.76
2023-04-18T20:24:09.508Z,53.45
2023-04-18T20:26:36.952Z,55.13
2023-04-18T20:29:04.474Z,56.35
2023-04-18T20:31:31.858Z,55.46
2023-04-18T20:34:07.266Z,54.95
2023-04-18T20:36:35.364Z,55.93
2023-04-18T20:39:03.119Z,55.89
2023-04-18T20:41:32.226Z,54.79
2023-04-18T20:43:59.573Z,53.58
2023-04-18T20:46:27.102Z,54.76
2023-04-18T20:48:54.441Z,55.41
2023-04-18T20:51:21.941Z,53.89
2023-04-18T20:53:49.115Z,51.80
2023-04-18T20:56:16.422Z,52.89
2023-04-18T20:58:43.997Z,53.86
2023-04-18T21:01:11.415Z,54.27
2023-04-18T21:03:38.858Z,53.87
2023-04-18T21:06:06.344Z,52.97
2023-04-18T21:08:35.118Z,51.33
2023-04-18T21:11:02.469Z,51.80
2023-04-18T21:13:31.660Z,52.06
2023-04-18T21:15:59.158Z,52.21
2023-04-18T21:18:26.372Z,50.13
2023-04-18T21:20:53.442Z,50.44
2023-04-18T21:23:22.544Z,51.28
2023-04-18T21:25:50.368Z,50.87
2023-04-18T21:28:19.318Z,52.41
2023-04-18T21:30:46.986Z,52.73
2023-04-18T21:33:14.452Z,51.82
2023-04-18T21:35:42.188Z,51.11
2023-04-18T21:38:12.396Z,52.16
2023-04-18T21:40:39.518Z,50.93
2023-04-18T21:43:06.711Z,51.34
2023-04-18T21:45:34.378Z,49.98
2023-04-18T21:48:01.630Z,50.16
2023-04-18T21:50:29.111Z,49.54
2023-04-18T21:52:56.299Z,49.38
2023-04-18T21:55:23.623Z,49.01
2023-04-18T21:57:51.004Z,48.54
2023-04-18T22:00:18.865Z,47.39
2023-04-18T22:02:47.030Z,47.86
2023-04-18T22:05:15.864Z,47.54
2023-04-18T22:07:54.441Z,47.83
2023-04-18T22:10:24.802Z,47.70
2023-04-18T22:12:55.485Z,47.13
2023-04-18T22:15:23.771Z,46.75
2023-04-18T22:17:51.281Z,47.48
2023-04-18T22:20:18.510Z,48.06
2023-04-18T22:22:45.983Z,46.80
2023-04-18T22:25:13.483Z,46.32
2023-04-18T22:27:42.264Z,46.51
2023-04-18T22:30:13.430Z,46.91
2023-04-18T22:32:41.423Z,46.46
2023-04-18T22:35:09.079Z,46.48
2023-04-18T22:37:36.667Z,45.88
2023-04-18T22:40:06.719Z,46.32
2023-04-18T22:42:34.543Z,47.37
2023-04-18T22:45:02.681Z,47.20
2023-04-18T22:47:29.917Z,46.22
2023-04-18T22:49:57.017Z,46.40
2023-04-18T22:52:25.074Z,45.72
2023-04-18T22:54:52.445Z,46.06
2023-04-18T22:57:19.999Z,45.96
2023-04-18T22:59:47.382Z,46.59
2023-04-18T23:02:14.603Z,47.03
2023-04-18T23:04:42.154Z,44.73
2023-04-18T23:07:09.988Z,42.74
2023-04-18T23:09:37.071Z,43.33
2023-04-18T23:12:04.729Z,42.58
2023-04-18T23:14:31.914Z,41.49
2023-04-18T23:16:59.883Z,42.13
2023-04-18T23:19:27.014Z,42.74
2023-04-18T23:21:54.463Z,42.63
2023-04-18T23:24:21.810Z,42.86
2023-04-18T23:26:49.107Z,42.12
2023-04-18T23:29:17.043Z,41.47
2023-04-18T23:31:44.440Z,41.83
2023-04-18T23:34:11.834Z,42.49
2023-04-18T23:36:40.129Z,42.17
2023-04-18T23:39:08.411Z,42.33
2023-04-18T23:41:35.750Z,42.13
2023-04-18T23:44:02.840Z,41.84
2023-04-18T23:46:31.105Z,42.86
2023-04-18T23:48:58.184Z,42.95
2023-04-18T23:51:27.786Z,42.92
2023-04-18T23:53:55.037Z,43.29
2023-04-18T23:56:22.881Z,43.71
2023-04-18T23:58:50.918Z,41.03
